createdAt,value
2022-08-08T00:02:03.715Z,83.30
2022-08-08T00:04:49.398Z,83.20
2022-08-08T00:07:31.786Z,82.70
2022-08-08T00:10:13.011Z,83.20
2022-08-08T00:12:56.281Z,89.70
2022-08-08T00:15:57.539Z,93.90
2022-08-08T00:18:39.674Z,93.20
2022-08-08T00:21:16.558Z,92.70
2022-08-08T00:23:51.891Z,92.20
2022-08-08T00:26:41.653Z,91.20
2022-08-08T00:29:14.928Z,90.60
2022-08-08T00:32:14.862Z,95.50
2022-08-08T00:35:18.626Z,99.90
2022-08-08T00:38:16.989Z,99.90
2022-08-08T00:41:45.170Z,99.90
2022-08-08T00:44:42.368Z,99.90
2022-08-08T00:48:05.276Z,99.90
2022-08-08T00:50:41.002Z,99.90
2022-08-08T00:53:43.692Z,99.90
2022-08-08T00:57:00.363Z,99.90
2022-08-08T00:59:43.798Z,99.90
2022-08-08T01:03:59.988Z,99.90
2022-08-08T01:05:59.408Z,99.90
2022-08-08T01:09:36.337Z,99.90
2022-08-08T01:12:17.740Z,99.90
2022-08-08T01:15:37.128Z,99.90
2022-08-08T01:18:51.143Z,99.90
2022-08-08T01:22:12.119Z,99.90
2022-08-08T01:24:59.421Z,99.90
2022-08-08T01:27:44.250Z,99.90
2022-08-08T01:30:42.712Z,99.90
2022-08-08T01:34:00.112Z,99.90
2022-08-08T01:36:43.378Z,99.90
2022-08-08T01:39:43.134Z,99.90
2022-08-08T01:42:42.472Z,99.90
2022-08-08T01:45:37.735Z,99.90
2022-08-08T01:48:23.722Z,99.90
2022-08-08T01:51:03.076Z,99.90
2022-08-08T01:55:26.567Z,99.90
2022-08-08T01:57:24.026Z,99.90
2022-08-08T02:00:16.752Z,99.90
2022-08-08T02:03:54.507Z,99.90
2022-08-08T02:06:31.605Z,99.90
2022-08-08T02:09:17.847Z,99.90
2022-08-08T02:12:00.041Z,99.90
2022-08-08T02:14:55.288Z,99.90
2022-08-08T02:17:46.813Z,99.90
2022-08-08T02:20:59.910Z,99.90
2022-08-08T02:23:36.314Z,99.90
2022-08-08T02:26:17.234Z,99.90
2022-08-08T02:29:24.251Z,99.90
2022-08-08T02:32:22.571Z,99.90
2022-08-08T02:35:16.300Z,99.90
2022-08-08T02:37:58.327Z,99.90
2022-08-08T02:40:59.055Z,99.90
2022-08-08T02:44:38.105Z,99.90
2022-08-08T02:46:58.040Z,99.90
2022-08-08T02:50:17.840Z,99.90
2022-08-08T02:52:50.681Z,99.90
2022-08-08T02:55:37.707Z,99.90
2022-08-08T02:58:44.058Z,99.90
2022-08-08T03:01:50.402Z,99.90
2022-08-08T03:05:04.277Z,99.90
2022-08-08T03:08:08.933Z,99.90
2022-08-08T03:11:31.757Z,99.90
2022-08-08T03:16:01.148Z,99.90
2022-08-08T03:17:39.813Z,99.90
2022-08-08T03:20:10.228Z,99.90
2022-08-08T03:22:56.054Z,99.90
2022-08-08T03:25:34.070Z,99.90
2022-08-08T03:28:12.783Z,99.90
2022-08-08T03:30:48.814Z,99.90
2022-08-08T03:33:55.648Z,99.90
2022-08-08T03:36:10.204Z,99.90
2022-08-08T03:38:57.328Z,99.90
2022-08-08T03:42:12.024Z,99.90
2022-08-08T03:44:25.563Z,99.90
2022-08-08T03:46:54.010Z,99.90
2022-08-08T03:49:56.693Z,99.90
2022-08-08T03:52:13.081Z,99.90
2022-08-08T03:55:02.512Z,99.90
2022-08-08T03:58:34.327Z,99.90
2022-08-08T04:00:20.097Z,99.90
2022-08-08T04:03:11.075Z,99.90
2022-08-08T04:05:47.160Z,99.90
2022-08-08T04:08:33.534Z,99.90
2022-08-08T04:11:11.443Z,99.90
2022-08-08T04:14:04.186Z,99.90
2022-08-08T04:16:38.763Z,99.90
2022-08-08T04:19:25.250Z,99.90
2022-08-08T04:21:52.644Z,99.90
2022-08-08T04:24:28.479Z,99.90
2022-08-08T04:26:57.194Z,99.90
2022-08-08T04:29:25.321Z,99.90
2022-08-08T04:31:58.552Z,99.90
2022-08-08T04:34:31.809Z,99.90
2022-08-08T04:36:59.269Z,99.90
2022-08-08T04:40:04.419Z,99.90
2022-08-08T04:42:15.635Z,99.90
2022-08-08T04:44:42.929Z,99.90
2022-08-08T04:47:14.987Z,99.90
2022-08-08T04:49:58.593Z,99.90
2022-08-08T04:52:34.001Z,99.90
2022-08-08T04:55:04.535Z,99.90
2022-08-08T04:57:34.351Z,99.90
2022-08-08T05:00:02.307Z,99.90
2022-08-08T05:02:30.895Z,99.90
2022-08-08T05:04:59.816Z,99.90
2022-08-08T05:07:37.687Z,99.90
2022-08-08T05:10:08.887Z,99.90
2022-08-08T05:12:59.923Z,99.90
2022-08-08T05:16:47.945Z,99.90
2022-08-08T05:18:14.176Z,99.90
2022-08-08T05:20:50.031Z,99.90
2022-08-08T05:23:17.811Z,99.90
2022-08-08T05:25:46.790Z,99.90
2022-08-08T05:28:14.967Z,99.90
2022-08-08T05:30:47.305Z,99.90
2022-08-08T05:33:16.795Z,99.90
2022-08-08T05:35:46.641Z,99.90
2022-08-08T05:38:30.728Z,99.90
2022-08-08T05:41:03.531Z,99.90
2022-08-08T05:44:02.938Z,99.90
2022-08-08T05:46:20.848Z,99.90
2022-08-08T05:48:52.655Z,99.90
2022-08-08T05:51:21.803Z,99.90
2022-08-08T05:54:24.230Z,99.90
2022-08-08T05:56:42.486Z,99.90
2022-08-08T06:00:00.683Z,99.90
2022-08-08T06:02:43.439Z,99.90
2022-08-08T06:05:33.314Z,99.90
2022-08-08T06:08:02.680Z,99.90
2022-08-08T06:10:38.547Z,99.90
2022-08-08T06:13:08.176Z,96.70
2022-08-08T06:15:51.117Z,91.10
2022-08-08T06:18:22.234Z,92.80
2022-08-08T06:20:56.343Z,87.60
2022-08-08T06:23:26.362Z,84.60
2022-08-08T06:26:38.926Z,84.70
2022-08-08T06:29:26.713Z,89.10
2022-08-08T06:32:10.778Z,80.40
2022-08-08T06:34:39.914Z,77.90
2022-08-08T06:37:25.382Z,75.50
2022-08-08T06:40:05.117Z,74.10
2022-08-08T06:42:36.773Z,72.80
2022-08-08T06:45:07.884Z,71.70
2022-08-08T06:47:52.616Z,70.80
2022-08-08T06:50:31.979Z,73.00
2022-08-08T06:53:09.991Z,69.50
2022-08-08T06:55:47.162Z,67.40
2022-08-08T06:58:30.693Z,61.00
2022-08-08T07:01:24.323Z,59.20
2022-08-08T07:04:37.900Z,61.70
2022-08-08T07:06:55.729Z,60.80
2022-08-08T07:09:45.609Z,61.90
2022-08-08T07:12:38.448Z,61.70
2022-08-08T07:15:11.479Z,59.00
2022-08-08T07:18:01.504Z,60.10
2022-08-08T07:20:35.021Z,54.60
2022-08-08T07:23:26.398Z,56.40
2022-08-08T07:25:58.168Z,54.20
2022-08-08T07:28:31.559Z,55.90
2022-08-08T07:30:59.407Z,54.70
2022-08-08T07:33:26.702Z,57.80
2022-08-08T07:35:55.380Z,54.20
2022-08-08T07:38:25.480Z,55.10
2022-08-08T07:40:59.071Z,52.40
2022-08-08T07:43:37.342Z,51.90
2022-08-08T07:46:24.364Z,48.90
2022-08-08T07:48:52.343Z,49.60
2022-08-08T07:51:23.742Z,49.00
2022-08-08T07:54:27.296Z,47.20
2022-08-08T07:57:17.339Z,43.80
2022-08-08T08:00:16.444Z,46.50
2022-08-08T08:03:02.713Z,43.90
2022-08-08T08:05:33.956Z,44.30
2022-08-08T08:08:07.213Z,44.10
2022-08-08T08:10:35.953Z,42.10
2022-08-08T08:13:42.568Z,42.00
2022-08-08T08:16:32.218Z,42.20
2022-08-08T08:19:09.371Z,40.60
2022-08-08T08:21:57.473Z,39.60
2022-08-08T08:24:30.654Z,40.00
2022-08-08T08:27:02.825Z,41.90
2022-08-08T08:29:30.659Z,40.30
2022-08-08T08:31:59.150Z,40.60
2022-08-08T08:34:32.600Z,40.50
2022-08-08T08:37:07.414Z,39.70
2022-08-08T08:40:00.390Z,38.50
2022-08-08T08:42:31.632Z,38.30
2022-08-08T08:45:21.432Z,38.80
2022-08-08T08:47:53.238Z,37.10
2022-08-08T08:50:33.941Z,36.00
2022-08-08T08:53:45.345Z,39.00
2022-08-08T08:55:55.811Z,37.60
2022-08-08T08:58:51.391Z,36.50
2022-08-08T09:01:20.807Z,36.50
2022-08-08T09:03:51.443Z,35.20
2022-08-08T09:06:36.674Z,34.00
2022-08-08T09:09:03.400Z,31.80
2022-08-08T09:11:47.420Z,30.30
2022-08-08T09:14:26.098Z,30.60
2022-08-08T09:16:54.045Z,30.70
2022-08-08T09:22:02.129Z,30.20
2022-08-08T09:22:09.814Z,30.80
2022-08-08T09:24:38.647Z,30.70
2022-08-08T09:27:15.056Z,30.10
2022-08-08T09:30:09.944Z,28.50
2022-08-08T09:32:50.408Z,29.50
2022-08-08T09:35:37.477Z,29.00
2022-08-08T09:38:05.877Z,27.30
2022-08-08T09:40:43.959Z,28.00
2022-08-08T09:43:40.776Z,26.90
2022-08-08T09:46:25.544Z,26.40
2022-08-08T09:49:18.142Z,26.10
2022-08-08T09:52:06.914Z,24.80
2022-08-08T09:54:43.981Z,25.60
2022-08-08T09:57:17.020Z,24.50
2022-08-08T10:00:02.391Z,25.60
2022-08-08T10:02:44.961Z,23.80
2022-08-08T10:05:25.221Z,22.50
2022-08-08T10:07:59.904Z,24.50
2022-08-08T10:10:38.953Z,24.60
2022-08-08T10:13:35.994Z,23.60
2022-08-08T10:16:05.907Z,24.60
2022-08-08T10:18:34.844Z,22.70
2022-08-08T10:21:22.926Z,23.70
2022-08-08T10:23:58.063Z,24.20
2022-08-08T10:26:56.841Z,24.20
2022-08-08T10:29:28.174Z,22.70
2022-08-08T10:32:17.015Z,23.80
2022-08-08T10:34:57.030Z,24.30
2022-08-08T10:37:34.507Z,22.60
2022-08-08T10:40:17.015Z,21.10
2022-08-08T10:42:49.845Z,20.60
2022-08-08T10:45:16.948Z,22.00
2022-08-08T10:47:55.103Z,20.10
2022-08-08T10:50:31.338Z,22.10
2022-08-08T10:53:07.850Z,20.90
2022-08-08T10:55:46.567Z,20.10
2022-08-08T10:58:15.561Z,19.90
2022-08-08T11:00:53.593Z,19.50
2022-08-08T11:04:00.443Z,19.00
2022-08-08T11:06:30.892Z,20.50
2022-08-08T11:09:15.375Z,18.40
2022-08-08T11:12:05.023Z,18.00
2022-08-08T11:14:34.753Z,16.50
2022-08-08T11:17:03.048Z,15.10
2022-08-08T11:19:33.202Z,16.90
2022-08-08T11:22:01.277Z,17.80
2022-08-08T11:24:35.578Z,17.30
2022-08-08T11:27:19.303Z,16.80
2022-08-08T11:30:04.151Z,17.30
2022-08-08T11:32:41.405Z,16.50
2022-08-08T11:35:29.501Z,17.00
2022-08-08T11:38:36.710Z,15.40
2022-08-08T11:40:52.684Z,16.00
2022-08-08T11:43:21.612Z,15.80
2022-08-08T11:46:17.447Z,13.70
2022-08-08T11:48:39.870Z,15.30
2022-08-08T11:51:30.719Z,14.90
2022-08-08T11:54:01.200Z,15.50
2022-08-08T11:56:34.421Z,15.30
2022-08-08T11:59:12.099Z,13.60
2022-08-08T12:01:39.072Z,11.70
2022-08-08T12:04:09.259Z,13.10
2022-08-08T12:06:39.423Z,13.80
2022-08-08T12:09:17.277Z,14.20
2022-08-08T12:11:46.133Z,11.00
2022-08-08T12:14:29.231Z,12.80
2022-08-08T12:16:57.207Z,12.50
2022-08-08T12:19:37.974Z,9.60
2022-08-08T12:22:20.681Z,7.10
2022-08-08T12:24:54.096Z,10.30
2022-08-08T12:27:26.384Z,11.80
2022-08-08T12:29:59.999Z,10.90
2022-08-08T12:32:31.388Z,9.30
2022-08-08T12:35:04.389Z,9.60
2022-08-08T12:37:41.267Z,8.20
2022-08-08T12:40:22.652Z,7.70
2022-08-08T12:42:52.235Z,6.80
2022-08-08T12:45:20.016Z,7.00
2022-08-08T12:48:36.871Z,6.90
2022-08-08T12:51:04.082Z,6.60
2022-08-08T12:53:36.502Z,6.20
2022-08-08T12:56:18.713Z,6.00
2022-08-08T12:58:52.130Z,7.90
2022-08-08T13:01:24.573Z,8.00
2022-08-08T13:04:19.402Z,5.40
2022-08-08T13:07:01.343Z,5.90
2022-08-08T13:09:43.031Z,7.50
2022-08-08T13:12:33.539Z,5.70
2022-08-08T13:15:04.116Z,6.80
2022-08-08T13:17:54.057Z,5.00
2022-08-08T13:20:21.919Z,5.00
2022-08-08T13:22:48.856Z,5.00
2022-08-08T13:25:22.386Z,5.00
2022-08-08T13:28:00.578Z,5.00
2022-08-08T13:30:28.671Z,5.00
2022-08-08T13:32:57.209Z,5.00
2022-08-08T13:35:29.638Z,5.00
2022-08-08T13:38:08.514Z,5.00
2022-08-08T13:40:41.646Z,5.00
2022-08-08T13:43:13.166Z,5.00
2022-08-08T13:45:40.836Z,5.00
2022-08-08T13:48:15.872Z,5.00
2022-08-08T13:50:53.926Z,5.00
2022-08-08T13:53:36.473Z,5.00
2022-08-08T13:56:11.434Z,5.00
2022-08-08T13:58:56.550Z,5.00
2022-08-08T14:01:32.710Z,5.00
2022-08-08T14:04:19.999Z,5.00
2022-08-08T14:06:46.976Z,5.00
2022-08-08T14:09:24.443Z,5.00
2022-08-08T14:12:00.937Z,5.00
2022-08-08T14:14:38.166Z,5.00
2022-08-08T14:17:11.682Z,5.00
2022-08-08T14:19:57.770Z,5.00
2022-08-08T14:22:38.263Z,5.00
2022-08-08T14:25:15.418Z,5.00
2022-08-08T14:27:59.562Z,5.00
2022-08-08T14:30:34.549Z,5.00
2022-08-08T14:33:03.216Z,5.00
2022-08-08T14:35:41.640Z,5.00
2022-08-08T14:38:33.440Z,5.00
2022-08-08T14:40:59.882Z,5.00
2022-08-08T14:44:02.787Z,5.00
2022-08-08T14:46:18.889Z,5.00
2022-08-08T14:49:02.683Z,5.00
2022-08-08T14:51:51.549Z,5.00
2022-08-08T14:54:28.435Z,5.00
2022-08-08T14:56:57.041Z,5.00
2022-08-08T14:59:44.329Z,5.00
2022-08-08T15:02:15.711Z,5.00
2022-08-08T15:04:43.297Z,5.00
2022-08-08T15:07:22.726Z,5.00
2022-08-08T15:09:50.301Z,5.00
2022-08-08T15:12:27.460Z,5.00
2022-08-08T15:14:54.942Z,5.00
2022-08-08T15:17:23.359Z,5.00
2022-08-08T15:19:51.168Z,5.00
2022-08-08T15:22:23.655Z,5.00
2022-08-08T15:24:51.166Z,5.00
2022-08-08T15:27:57.961Z,5.00
2022-08-08T15:30:08.127Z,5.00
2022-08-08T15:32:39.353Z,5.00
2022-08-08T15:35:07.520Z,5.00
2022-08-08T15:37:34.416Z,5.00
2022-08-08T15:40:01.600Z,5.00
2022-08-08T15:42:32.403Z,5.00
2022-08-08T15:45:07.130Z,5.00
2022-08-08T15:47:33.914Z,5.00
2022-08-08T15:50:00.841Z,5.00
2022-08-08T15:52:29.110Z,5.00
2022-08-08T15:54:56.054Z,5.00
2022-08-08T15:57:23.454Z,5.00
2022-08-08T16:00:06.781Z,5.00
2022-08-08T16:02:44.056Z,5.00
2022-08-08T16:05:18.131Z,5.00
2022-08-08T16:07:51.422Z,5.00
2022-08-08T16:13:11.562Z,5.00
2022-08-08T16:13:34.352Z,5.00
2022-08-08T16:15:58.048Z,5.00
2022-08-08T16:18:28.106Z,5.00
2022-08-08T16:20:59.919Z,5.00
2022-08-08T16:23:32.223Z,5.00
2022-08-08T16:26:08.007Z,5.00
2022-08-08T16:28:45.793Z,5.00
2022-08-08T16:31:13.196Z,5.00
2022-08-08T16:33:40.553Z,5.00
2022-08-08T16:36:09.914Z,5.00
2022-08-08T16:38:44.691Z,5.00
2022-08-08T16:41:20.664Z,5.00
2022-08-08T16:43:52.032Z,5.00
2022-08-08T16:46:43.470Z,5.00
2022-08-08T16:49:09.543Z,5.00
2022-08-08T16:55:01.405Z,5.00
2022-08-08T16:55:02.072Z,5.00
2022-08-08T16:57:40.713Z,5.00
2022-08-08T17:00:06.556Z,5.00
2022-08-08T17:02:39.125Z,5.00
2022-08-08T17:05:08.231Z,5.00
2022-08-08T17:07:37.887Z,5.00
2022-08-08T17:10:09.665Z,5.00
2022-08-08T17:12:37.485Z,5.00
2022-08-08T17:15:18.076Z,5.00
2022-08-08T17:18:03.088Z,5.00
2022-08-08T17:20:31.924Z,5.00
2022-08-08T17:23:16.442Z,5.00
2022-08-08T17:25:53.709Z,5.00
2022-08-08T17:28:34.311Z,5.00
2022-08-08T17:31:44.020Z,5.00
2022-08-08T17:34:47.857Z,5.00
2022-08-08T17:37:00.038Z,5.00
2022-08-08T17:40:04.496Z,5.00
2022-08-08T17:42:12.711Z,5.00
2022-08-08T17:44:44.054Z,5.00
2022-08-08T17:47:16.109Z,5.00
2022-08-08T17:49:52.638Z,5.00
2022-08-08T17:52:23.152Z,5.00
2022-08-08T17:54:55.737Z,5.00
2022-08-08T17:57:23.264Z,5.00
2022-08-08T17:59:51.861Z,5.00
2022-08-08T18:02:28.440Z,5.00
2022-08-08T18:04:58.316Z,5.00
2022-08-08T18:08:01.790Z,5.00
2022-08-08T18:10:16.687Z,5.00
2022-08-08T18:12:45.975Z,5.00
2022-08-08T18:15:13.375Z,5.10
2022-08-08T18:18:05.333Z,6.40
2022-08-08T18:20:44.052Z,6.70
2022-08-08T18:23:15.448Z,7.10
2022-08-08T18:25:43.586Z,6.20
2022-08-08T18:28:13.306Z,7.10
2022-08-08T18:30:43.931Z,8.10
2022-08-08T18:33:36.308Z,8.40
2022-08-08T18:36:04.835Z,8.70
2022-08-08T18:38:34.137Z,8.60
2022-08-08T18:41:02.857Z,8.50
2022-08-08T18:43:42.591Z,9.10
2022-08-08T18:46:56.114Z,10.30
2022-08-08T18:48:58.012Z,11.30
2022-08-08T18:51:52.639Z,10.90
2022-08-08T18:54:22.880Z,12.30
2022-08-08T18:56:57.231Z,12.10
2022-08-08T18:59:24.396Z,12.20
2022-08-08T19:02:14.344Z,13.10
2022-08-08T19:04:42.707Z,12.40
2022-08-08T19:07:10.914Z,13.80
2022-08-08T19:09:48.806Z,12.90
2022-08-08T19:12:26.535Z,13.60
2022-08-08T19:14:53.749Z,14.10
2022-08-08T19:17:29.207Z,14.90
2022-08-08T19:20:10.190Z,15.30
2022-08-08T19:22:37.953Z,17.10
2022-08-08T19:25:59.842Z,15.70
2022-08-08T19:27:55.855Z,16.50
2022-08-08T19:30:26.725Z,16.40
2022-08-08T19:33:00.800Z,16.00
2022-08-08T19:35:45.277Z,16.30
2022-08-08T19:38:17.499Z,16.50
2022-08-08T19:40:54.369Z,16.70
2022-08-08T19:43:28.158Z,16.70
2022-08-08T19:45:57.479Z,17.00
2022-08-08T19:48:28.731Z,17.10
2022-08-08T19:50:59.122Z,17.50
2022-08-08T19:53:51.010Z,18.00
2022-08-08T19:56:14.155Z,18.40
2022-08-08T19:58:51.410Z,18.10
2022-08-08T20:01:24.106Z,18.40
2022-08-08T20:04:01.388Z,18.40
2022-08-08T20:06:30.465Z,18.30
2022-08-08T20:08:57.725Z,19.20
2022-08-08T20:11:24.756Z,19.00
2022-08-08T20:14:32.610Z,19.20
2022-08-08T20:16:40.504Z,19.20
2022-08-08T20:19:08.740Z,19.90
2022-08-08T20:21:38.190Z,19.40
2022-08-08T20:24:06.143Z,19.70
2022-08-08T20:26:35.071Z,19.80
2022-08-08T20:29:08.467Z,19.90
2022-08-08T20:31:47.316Z,19.50
2022-08-08T20:34:30.281Z,20.10
2022-08-08T20:37:03.223Z,20.20
2022-08-08T20:39:39.699Z,20.80
2022-08-08T20:42:23.712Z,20.70
2022-08-08T20:45:00.141Z,20.50
2022-08-08T20:47:36.474Z,20.70
2022-08-08T20:50:09.990Z,20.90
2022-08-08T20:52:38.009Z,21.10
2022-08-08T20:55:16.244Z,22.00
2022-08-08T20:57:51.161Z,21.30
2022-08-08T21:00:18.684Z,22.30
2022-08-08T21:02:52.421Z,21.70
2022-08-08T21:05:19.999Z,22.00
2022-08-08T21:08:36.262Z,22.60
2022-08-08T21:10:36.716Z,22.70
2022-08-08T21:13:05.516Z,23.70
2022-08-08T21:16:06.200Z,23.40
2022-08-08T21:18:23.327Z,22.50
2022-08-08T21:20:54.798Z,23.90
2022-08-08T21:23:25.046Z,23.30
2022-08-08T21:26:09.186Z,24.50
2022-08-08T21:28:37.899Z,24.30
2022-08-08T21:31:22.963Z,24.60
2022-08-08T21:33:53.748Z,24.40
2022-08-08T21:36:28.612Z,25.60
2022-08-08T21:38:56.863Z,24.80
2022-08-08T21:41:38.185Z,24.50
2022-08-08T21:44:10.055Z,25.30
2022-08-08T21:48:21.652Z,25.20
2022-08-08T21:49:24.599Z,25.10
2022-08-08T21:54:36.671Z,25.60
2022-08-08T21:55:02.399Z,25.60
2022-08-08T21:57:29.933Z,26.00
2022-08-08T22:00:12.370Z,25.20
2022-08-08T22:02:42.625Z,25.20
2022-08-08T22:05:11.965Z,25.50
2022-08-08T22:07:44.184Z,26.20
2022-08-08T22:10:18.487Z,27.00
2022-08-08T22:13:17.388Z,28.50
2022-08-08T22:15:59.457Z,28.60
2022-08-08T22:18:28.916Z,29.30
2022-08-08T22:20:59.558Z,29.70
2022-08-08T22:23:38.905Z,29.80
2022-08-08T22:26:27.456Z,30.30
2022-08-08T22:29:13.339Z,30.50
2022-08-08T22:31:42.146Z,31.00
2022-08-08T22:34:14.008Z,31.70
2022-08-08T22:36:42.941Z,31.20
2022-08-08T22:39:18.950Z,32.00
2022-08-08T22:41:46.729Z,32.50
2022-08-08T22:44:16.373Z,32.80
2022-08-08T22:46:45.661Z,32.30
2022-08-08T22:49:12.931Z,33.30
2022-08-08T22:51:47.027Z,33.80
2022-08-08T22:54:32.897Z,33.20
2022-08-08T22:57:11.729Z,33.90
2022-08-08T22:59:48.384Z,33.70
2022-08-08T23:02:28.606Z,35.00
2022-08-08T23:04:56.096Z,34.00
2022-08-08T23:07:49.303Z,33.40
2022-08-08T23:10:21.100Z,34.80
2022-08-08T23:12:51.616Z,34.30
2022-08-08T23:16:37.786Z,35.20
2022-08-08T23:18:12.074Z,35.60
2022-08-08T23:20:40.266Z,36.00
2022-08-08T23:23:07.405Z,36.30
2022-08-08T23:25:37.403Z,36.60
2022-08-08T23:28:15.664Z,36.20
2022-08-08T23:30:44.983Z,36.90
2022-08-08T23:33:18.860Z,37.00
2022-08-08T23:36:07.036Z,37.40
2022-08-08T23:38:35.002Z,37.60
2022-08-08T23:41:12.202Z,38.00
2022-08-08T23:43:49.494Z,38.20
2022-08-08T23:49:01.119Z,37.60
2022-08-08T23:49:18.251Z,37.80
2022-08-08T23:52:06.147Z,38.90
2022-08-08T23:54:42.832Z,38.40
2022-08-08T23:57:27.441Z,38.80
